Time;durP1;ratioP1;P1;durP2;ratioP2;P2;SDS_P1;SDS_P2;PMS_P1;PMS_P2;Temp;Humidity;BMP_temperature;BMP_pressure;BME280_temperature;BME280_humidity;BME280_pressure;Samples;Min_cycle;Max_cycle;Signal;HPM_P1;HPM_P2
2021/08/17 00:01:35;;;;;;;20.77;7.38;;;14.10;99.90;;;;;;5082646;28;20053;-82
2021/08/17 00:04:06;;;;;;;13.93;5.88;;;14.10;99.90;;;;;;5084112;28;20051;-82
2021/08/17 00:06:33;;;;;;;12.27;5.45;;;14.10;99.90;;;;;;5101393;28;20059;-81
2021/08/17 00:09:01;;;;;;;14.57;5.88;;;14.10;99.90;;;;;;5088581;28;20056;-81
2021/08/17 00:11:29;;;;;;;22.52;6.80;;;14.00;99.90;;;;;;5103090;28;20036;-81
2021/08/17 00:13:57;;;;;;;12.73;5.95;;;14.00;99.90;;;;;;5071161;28;20053;-81
2021/08/17 00:16:25;;;;;;;18.88;6.15;;;14.00;99.90;;;;;;5093765;28;20063;-81
2021/08/17 00:18:54;;;;;;;20.75;7.15;;;14.00;99.90;;;;;;5081721;28;20048;-81
2021/08/17 00:21:21;;;;;;;15.65;6.05;;;13.80;99.90;;;;;;5096786;28;20050;-80
2021/08/17 00:23:49;;;;;;;18.15;6.30;;;14.40;99.90;;;;;;5093311;28;20045;-82
2021/08/17 00:26:17;;;;;;;23.88;9.95;;;13.90;99.90;;;;;;5094302;28;20063;-82
2021/08/17 00:28:45;;;;;;;16.20;6.10;;;13.90;99.90;;;;;;5102889;28;20058;-82
2021/08/17 00:31:13;;;;;;;21.38;9.25;;;13.90;99.90;;;;;;5085726;28;20501;-82
2021/08/17 00:33:41;;;;;;;15.95;6.50;;;13.90;99.90;;;;;;5103330;28;20055;-82
2021/08/17 00:36:09;;;;;;;19.88;7.35;;;13.90;99.90;;;;;;5079144;28;20062;-82
2021/08/17 00:38:38;;;;;;;13.90;6.00;;;13.80;99.90;;;;;;5102517;28;20571;-83
2021/08/17 00:41:10;;;;;;;22.25;6.82;;;14.20;99.90;;;;;;5103738;28;20049;-82
2021/08/17 00:43:39;;;;;;;18.98;6.82;;;13.80;99.90;;;;;;5102953;28;20052;-82
2021/08/17 00:46:07;;;;;;;16.02;7.22;;;13.80;99.90;;;;;;5083018;28;20047;-82
2021/08/17 00:48:39;;;;;;;14.40;7.68;;;13.80;99.90;;;;;;5077125;28;20049;-82
2021/08/17 00:51:08;;;;;;;15.13;7.38;;;13.80;99.90;;;;;;5090130;28;20044;-82
2021/08/17 00:53:38;;;;;;;13.35;6.57;;;13.70;99.90;;;;;;5086592;28;20064;-82
2021/08/17 00:56:06;;;;;;;16.63;6.43;;;13.70;99.90;;;;;;5100448;28;20047;-82
2021/08/17 00:58:34;;;;;;;21.15;6.88;;;13.70;99.90;;;;;;5068997;28;20409;-82
2021/08/17 01:01:02;;;;;;;23.63;7.80;;;13.60;99.90;;;;;;5107260;28;20040;-82
2021/08/17 01:03:31;;;;;;;15.80;6.57;;;13.60;99.90;;;;;;5107005;28;20044;-81
2021/08/17 01:05:59;;;;;;;20.65;7.53;;;13.60;99.90;;;;;;5084699;28;20533;-82
2021/08/17 01:08:28;;;;;;;19.77;7.38;;;13.60;99.90;;;;;;5087285;28;20040;-82
2021/08/17 01:10:57;;;;;;;18.08;7.15;;;13.50;99.90;;;;;;5105956;28;20060;-82
2021/08/17 01:13:28;;;;;;;16.20;6.68;;;13.50;99.90;;;;;;5090402;28;20052;-81
2021/08/17 01:15:57;;;;;;;16.97;7.47;;;13.50;99.90;;;;;;5107015;28;20052;-81
2021/08/17 01:18:25;;;;;;;17.40;7.80;;;13.50;99.90;;;;;;5083143;28;20622;-82
2021/08/17 01:20:54;;;;;;;16.70;6.82;;;13.40;99.90;;;;;;5096069;28;20055;-81
2021/08/17 01:23:24;;;;;;;19.67;6.93;;;13.40;99.90;;;;;;5106753;28;20063;-81
2021/08/17 01:25:53;;;;;;;16.48;6.60;;;13.40;99.90;;;;;;5094188;28;20066;-81
2021/08/17 01:28:21;;;;;;;21.60;6.88;;;13.30;99.90;;;;;;5087008;28;20052;-82
2021/08/17 01:31:01;;;;;;;20.20;7.10;;;13.30;99.90;;;;;;5100070;28;20048;-82
2021/08/17 01:33:32;;;;;;;17.13;7.05;;;13.30;99.90;;;;;;5105903;28;20059;-82
2021/08/17 01:36:03;;;;;;;20.40;7.55;;;13.20;99.90;;;;;;5093729;28;20390;-81
2021/08/17 01:38:30;;;;;;;14.88;6.63;;;13.20;99.90;;;;;;5104494;28;20047;-82
2021/08/17 01:40:58;;;;;;;20.83;7.18;;;13.20;99.90;;;;;;5105286;28;20050;-81
2021/08/17 01:43:26;;;;;;;20.55;8.00;;;13.20;99.90;;;;;;5085069;28;20058;-81
2021/08/17 01:45:59;;;;;;;16.65;6.85;;;13.20;99.90;;;;;;5092379;28;20054;-82
2021/08/17 01:48:30;;;;;;;17.92;7.53;;;13.10;99.90;;;;;;5100919;28;20032;-81
2021/08/17 01:50:59;;;;;;;18.97;7.17;;;13.10;99.90;;;;;;5070012;28;20048;-81
2021/08/17 01:53:30;;;;;;;20.02;7.00;;;13.60;99.90;;;;;;5090747;28;20044;-82
2021/08/17 01:56:04;;;;;;;18.17;7.90;;;13.10;99.90;;;;;;5106025;28;20529;-81
2021/08/17 01:58:33;;;;;;;20.77;7.53;;;13.00;99.90;;;;;;5107503;28;20047;-80
2021/08/17 02:01:02;;;;;;;20.17;7.75;;;13.00;99.90;;;;;;5092577;28;20052;-82
2021/08/17 02:03:30;;;;;;;20.38;7.63;;;13.00;99.90;;;;;;5108034;28;20197;-82
2021/08/17 02:05:58;;;;;;;16.70;6.78;;;12.90;99.90;;;;;;5089892;28;20059;-82
2021/08/17 02:08:26;;;;;;;15.32;7.00;;;12.90;99.90;;;;;;5105314;28;20043;-82
2021/08/17 02:10:54;;;;;;;21.85;8.48;;;12.90;99.90;;;;;;5091243;28;20048;-81
2021/08/17 02:13:24;;;;;;;19.02;8.10;;;12.90;99.90;;;;;;5105070;28;20058;-82
2021/08/17 02:15:52;;;;;;;16.77;6.70;;;12.80;99.90;;;;;;5093827;28;20066;-80
2021/08/17 02:18:20;;;;;;;21.60;8.48;;;12.80;99.90;;;;;;5106577;28;20378;-81
2021/08/17 02:20:48;;;;;;;17.52;7.75;;;12.70;99.90;;;;;;5092465;28;20071;-82
2021/08/17 02:23:15;;;;;;;20.80;7.90;;;12.80;99.90;;;;;;5104931;28;20520;-81
2021/08/17 02:25:43;;;;;;;15.73;6.15;;;12.70;99.90;;;;;;5106603;28;20054;-82
2021/08/17 02:28:11;;;;;;;22.85;7.60;;;12.70;99.90;;;;;;5085772;28;20052;-81
2021/08/17 02:30:39;;;;;;;18.92;8.98;;;12.70;99.90;;;;;;5092416;28;20047;-81
2021/08/17 02:33:07;;;;;;;26.42;8.77;;;12.60;99.90;;;;;;5100666;28;20048;-82
2021/08/17 02:35:35;;;;;;;17.10;8.32;;;12.60;99.90;;;;;;5100805;28;20055;-81
2021/08/17 02:38:05;;;;;;;20.65;7.85;;;12.60;99.90;;;;;;5087915;28;20048;-82
2021/08/17 02:40:34;;;;;;;24.73;8.60;;;12.60;99.90;;;;;;5078176;28;20044;-81
2021/08/17 02:43:02;;;;;;;16.85;8.90;;;12.60;99.90;;;;;;5080187;28;20059;-81
2021/08/17 02:45:30;;;;;;;20.48;7.68;;;12.60;99.90;;;;;;5091695;28;20059;-82
2021/08/17 02:47:59;;;;;;;16.63;6.30;;;12.60;99.90;;;;;;5104524;28;20036;-82
2021/08/17 02:50:28;;;;;;;21.00;7.57;;;12.60;99.90;;;;;;5105616;28;20058;-82
2021/08/17 02:52:56;;;;;;;17.35;7.25;;;12.60;99.90;;;;;;5087966;28;20052;-82
2021/08/17 02:55:24;;;;;;;16.90;7.35;;;12.70;99.90;;;;;;5104474;28;20048;-82
2021/08/17 02:57:57;;;;;;;15.25;6.95;;;12.70;99.90;;;;;;5087368;28;20051;-81
2021/08/17 03:00:27;;;;;;;17.05;6.47;;;12.70;99.90;;;;;;5058833;28;20329;-81
2021/08/17 03:02:56;;;;;;;15.48;7.13;;;12.70;99.90;;;;;;5104456;28;20439;-81
2021/08/17 03:05:24;;;;;;;16.00;7.28;;;12.70;99.90;;;;;;5090882;28;20118;-82
2021/08/17 03:07:55;;;;;;;17.98;7.32;;;12.80;99.90;;;;;;5097965;28;20046;-81
2021/08/17 03:10:23;;;;;;;25.10;6.78;;;12.80;99.90;;;;;;5104592;28;20047;-82
2021/08/17 03:12:52;;;;;;;11.02;5.75;;;12.90;99.90;;;;;;5089578;28;20048;-81
2021/08/17 03:15:22;;;;;;;13.73;5.18;;;12.90;99.90;;;;;;5105693;28;20040;-81
2021/08/17 03:17:51;;;;;;;9.38;4.28;;;13.00;99.90;;;;;;5104417;28;20048;-81
2021/08/17 03:20:19;;;;;;;17.42;5.72;;;13.00;99.90;;;;;;5104100;28;20075;-82
2021/08/17 03:22:47;;;;;;;13.73;4.45;;;13.10;99.90;;;;;;5086724;28;20044;-81
2021/08/17 03:25:21;;;;;;;13.85;5.30;;;13.10;99.90;;;;;;5078334;28;20428;-81
2021/08/17 03:27:49;;;;;;;15.32;5.63;;;13.10;99.90;;;;;;5104412;28;20052;-81
2021/08/17 03:30:20;;;;;;;10.93;4.82;;;13.20;99.90;;;;;;5094135;28;20059;-81
2021/08/17 03:32:48;;;;;;;9.80;5.28;;;13.20;99.90;;;;;;5084386;28;20052;-81
2021/08/17 03:35:17;;;;;;;13.23;4.53;;;13.20;99.90;;;;;;5102483;28;20043;-82
2021/08/17 03:37:45;;;;;;;10.43;5.47;;;13.30;99.90;;;;;;5104455;28;20048;-82
2021/08/17 03:40:19;;;;;;;11.52;4.53;;;13.30;99.90;;;;;;5102562;28;20451;-82
2021/08/17 03:42:47;;;;;;;11.80;5.28;;;13.30;99.90;;;;;;5085290;28;20044;-81
2021/08/17 03:45:17;;;;;;;10.20;5.78;;;13.30;99.90;;;;;;5100947;28;20056;-82
2021/08/17 03:47:46;;;;;;;13.05;4.85;;;12.90;99.90;;;;;;5105367;28;20051;-82
2021/08/17 03:50:15;;;;;;;14.82;5.80;;;13.40;99.90;;;;;;5085582;28;20048;-81
2021/08/17 03:52:43;;;;;;;9.77;4.38;;;13.40;99.90;;;;;;5062066;28;20049;-82
2021/08/17 03:55:12;;;;;;;10.68;4.97;;;13.40;99.90;;;;;;5085606;28;20040;-82
2021/08/17 03:57:40;;;;;;;6.53;4.53;;;13.50;99.90;;;;;;5104554;28;20050;-81
2021/08/17 04:00:11;;;;;;;13.18;4.60;;;13.50;99.90;;;;;;5090695;28;20052;-82
2021/08/17 04:02:41;;;;;;;11.15;4.55;;;13.50;99.90;;;;;;5067514;28;20049;-81
2021/08/17 04:05:12;;;;;;;10.70;4.57;;;13.50;99.90;;;;;;5080195;28;20055;-81
2021/08/17 04:07:40;;;;;;;10.77;4.63;;;14.20;99.90;;;;;;5096367;28;20284;-81
2021/08/17 04:10:08;;;;;;;10.20;4.05;;;13.50;99.90;;;;;;5095573;28;20044;-81
2021/08/17 04:12:36;;;;;;;14.02;4.55;;;13.50;99.90;;;;;;5089290;28;20049;-82
2021/08/17 04:15:06;;;;;;;9.73;4.07;;;13.50;99.90;;;;;;5090898;28;20036;-81
2021/08/17 04:17:35;;;;;;;13.52;3.90;;;13.50;99.90;;;;;;5094518;28;20067;-81
2021/08/17 04:20:04;;;;;;;12.88;4.30;;;13.50;99.90;;;;;;5101480;28;20044;-82
2021/08/17 04:22:32;;;;;;;12.88;4.22;;;13.50;99.90;;;;;;5088008;28;20046;-81
2021/08/17 04:25:00;;;;;;;8.38;4.18;;;13.50;99.90;;;;;;5104691;28;20054;-81
2021/08/17 04:27:29;;;;;;;11.73;4.10;;;13.60;99.90;;;;;;5104466;28;20048;-81
2021/08/17 04:29:57;;;;;;;10.05;4.93;;;13.60;99.90;;;;;;5086776;28;20048;-80
2021/08/17 04:32:25;;;;;;;11.02;4.05;;;13.60;99.90;;;;;;5092923;28;20047;-81
2021/08/17 04:34:53;;;;;;;8.85;3.83;;;13.50;99.90;;;;;;5074061;28;20051;-82
2021/08/17 04:37:20;;;;;;;9.70;4.10;;;13.70;99.90;;;;;;5101503;28;20048;-82
2021/08/17 04:39:48;;;;;;;8.80;3.97;;;13.70;99.90;;;;;;5090838;28;20048;-81
2021/08/17 04:42:17;;;;;;;9.40;4.07;;;13.70;99.90;;;;;;5107532;28;20492;-81
2021/08/17 04:44:45;;;;;;;10.80;3.97;;;13.70;99.90;;;;;;5079639;28;20044;-81
2021/08/17 04:47:13;;;;;;;10.82;4.43;;;13.70;99.90;;;;;;5102673;28;20139;-82
2021/08/17 04:49:42;;;;;;;11.38;4.00;;;13.70;99.90;;;;;;5095012;28;20063;-81
2021/08/17 04:52:10;;;;;;;8.68;4.47;;;13.70;99.90;;;;;;5086991;28;20044;-82
2021/08/17 04:54:39;;;;;;;9.25;3.60;;;13.70;99.90;;;;;;5052386;28;20056;-82
2021/08/17 04:57:07;;;;;;;6.95;3.83;;;13.70;99.90;;;;;;5089884;28;20063;-82
2021/08/17 04:59:36;;;;;;;9.63;3.72;;;13.80;99.90;;;;;;5089574;28;20055;-82
2021/08/17 05:02:07;;;;;;;10.98;4.03;;;13.80;99.90;;;;;;5106462;28;20047;-81
2021/08/17 05:04:36;;;;;;;8.90;4.00;;;13.80;99.90;;;;;;5087050;28;20052;-81
2021/08/17 05:07:03;;;;;;;11.85;4.82;;;13.80;99.90;;;;;;5079800;28;20067;-82
2021/08/17 05:09:34;;;;;;;8.57;3.70;;;13.80;99.90;;;;;;5073721;28;20418;-82
2021/08/17 05:12:02;;;;;;;7.70;3.65;;;13.80;99.90;;;;;;5080014;28;20071;-81
2021/08/17 05:14:30;;;;;;;9.63;3.67;;;13.90;99.90;;;;;;5104983;28;20466;-82
2021/08/17 05:17:03;;;;;;;10.32;5.43;;;12.60;99.90;;;;;;5095317;28;20064;-81
2021/08/17 05:19:31;;;;;;;6.50;3.20;;;13.90;99.90;;;;;;5105369;28;20048;-81
2021/08/17 05:21:59;;;;;;;9.60;3.90;;;13.90;99.90;;;;;;5086116;28;20056;-82
2021/08/17 05:24:27;;;;;;;12.98;4.38;;;14.00;99.90;;;;;;5085592;28;20063;-81
2021/08/17 05:26:56;;;;;;;10.77;3.25;;;14.00;99.90;;;;;;5092365;28;20048;-81
2021/08/17 05:29:25;;;;;;;9.15;4.78;;;14.00;99.90;;;;;;5076327;28;20041;-81
2021/08/17 05:31:56;;;;;;;8.95;3.67;;;14.00;99.90;;;;;;5104544;28;20047;-80
2021/08/17 05:34:24;;;;;;;6.88;3.03;;;14.00;99.90;;;;;;5105311;28;20040;-81
2021/08/17 05:36:53;;;;;;;9.90;4.40;;;14.00;99.90;;;;;;5104496;28;20051;-81
2021/08/17 05:39:21;;;;;;;12.95;4.90;;;14.00;99.90;;;;;;5088228;28;20044;-81
2021/08/17 05:41:49;;;;;;;9.27;3.75;;;14.10;99.90;;;;;;5088108;28;20048;-81
2021/08/17 05:44:17;;;;;;;12.77;3.22;;;14.10;99.90;;;;;;5093197;28;20040;-81
2021/08/17 05:46:46;;;;;;;9.00;4.07;;;14.10;99.90;;;;;;5105977;28;20523;-81
2021/08/17 05:49:14;;;;;;;6.25;3.70;;;14.20;99.90;;;;;;5083934;28;20048;-81
2021/08/17 05:51:43;;;;;;;8.63;3.22;;;14.20;99.90;;;;;;5090070;28;20053;-80
2021/08/17 05:54:11;;;;;;;8.57;3.70;;;14.20;99.90;;;;;;5078630;28;20044;-80
2021/08/17 05:56:39;;;;;;;8.82;4.13;;;14.20;99.90;;;;;;5105754;28;20048;-81
2021/08/17 05:59:08;;;;;;;7.18;3.38;;;14.20;99.90;;;;;;5090107;28;20051;-82
2021/08/17 06:01:36;;;;;;;12.90;4.28;;;14.30;99.90;;;;;;5088180;28;20074;-82
2021/08/17 06:04:05;;;;;;;11.15;3.72;;;14.30;99.90;;;;;;5091673;28;20336;-80
2021/08/17 06:06:33;;;;;;;8.32;3.83;;;14.30;99.90;;;;;;5077018;28;20058;-80
2021/08/17 06:09:04;;;;;;;8.48;3.47;;;14.30;99.90;;;;;;5105224;28;20051;-81
2021/08/17 06:11:31;;;;;;;11.70;4.07;;;14.30;99.90;;;;;;5084300;28;20302;-82
2021/08/17 06:14:01;;;;;;;9.68;3.67;;;14.40;99.90;;;;;;5097884;28;20044;-81
2021/08/17 06:16:28;;;;;;;10.02;4.97;;;14.40;99.90;;;;;;5088140;28;20131;-80
2021/08/17 06:18:59;;;;;;;11.13;4.35;;;14.40;99.90;;;;;;5082503;28;20052;-81
2021/08/17 06:21:28;;;;;;;6.80;3.43;;;14.50;99.90;;;;;;5098103;28;20044;-80
2021/08/17 06:23:55;;;;;;;9.70;4.13;;;13.30;99.90;;;;;;5093452;28;20056;-81
2021/08/17 06:26:25;;;;;;;15.52;4.32;;;14.50;99.90;;;;;;5092076;28;20052;-81
2021/08/17 06:28:54;;;;;;;11.77;3.65;;;14.60;99.90;;;;;;5105862;28;20059;-81
2021/08/17 06:31:23;;;;;;;7.57;3.50;;;14.60;99.90;;;;;;5095634;28;20347;-81
2021/08/17 06:33:57;;;;;;;6.53;3.30;;;14.70;99.90;;;;;;5081676;28;20056;-81
2021/08/17 06:36:26;;;;;;;8.15;2.90;;;14.70;99.90;;;;;;5100084;28;20055;-82
2021/08/17 06:38:56;;;;;;;7.75;3.50;;;14.10;99.90;;;;;;5106345;28;20047;-81
2021/08/17 06:41:25;;;;;;;8.38;3.58;;;14.70;99.90;;;;;;5101933;28;20049;-81
2021/08/17 06:43:54;;;;;;;12.13;3.83;;;14.70;99.90;;;;;;5081327;28;20062;-81
2021/08/17 06:46:22;;;;;;;8.18;3.83;;;14.70;99.90;;;;;;5083054;28;20045;-81
2021/08/17 06:48:50;;;;;;;11.32;4.07;;;14.70;99.90;;;;;;5081842;28;20052;-81
2021/08/17 06:51:18;;;;;;;11.43;3.80;;;14.70;99.90;;;;;;5093564;28;20051;-81
2021/08/17 06:53:47;;;;;;;8.30;3.63;;;14.70;99.90;;;;;;5101870;28;20036;-82
2021/08/17 06:56:15;;;;;;;13.18;3.50;;;14.80;99.90;;;;;;5093380;28;20040;-82
2021/08/17 06:58:44;;;;;;;6.35;3.40;;;14.80;99.90;;;;;;5088966;28;20067;-80
2021/08/17 07:01:12;;;;;;;11.13;3.88;;;14.80;99.90;;;;;;5086940;28;20040;-81
2021/08/17 07:03:42;;;;;;;7.55;4.32;;;14.80;99.90;;;;;;5089320;28;20053;-81
2021/08/17 07:06:11;;;;;;;6.60;3.08;;;14.80;99.90;;;;;;5068961;28;20054;-81
2021/08/17 07:08:39;;;;;;;13.57;3.67;;;14.80;99.90;;;;;;5094785;28;20063;-81
2021/08/17 07:11:09;;;;;;;7.38;4.03;;;14.80;99.90;;;;;;5099087;28;20044;-81
2021/08/17 07:13:37;;;;;;;8.48;4.28;;;14.80;99.90;;;;;;5077391;28;20052;-81
2021/08/17 07:16:05;;;;;;;11.90;3.78;;;14.90;99.90;;;;;;5080206;28;20044;-81
2021/08/17 07:18:34;;;;;;;8.93;3.85;;;14.50;99.90;;;;;;5093868;28;20066;-81
2021/08/17 07:21:02;;;;;;;9.05;4.30;;;14.90;99.90;;;;;;5065721;28;20167;-81
2021/08/17 07:23:31;;;;;;;12.10;4.90;;;14.60;99.90;;;;;;5082564;28;20052;-81
2021/08/17 07:26:00;;;;;;;12.00;3.63;;;15.00;99.90;;;;;;5078952;28;20067;-82
2021/08/17 07:28:28;;;;;;;13.57;3.90;;;15.10;99.90;;;;;;5082689;28;20525;-81
2021/08/17 07:30:56;;;;;;;9.88;3.88;;;15.10;99.90;;;;;;5095406;28;20055;-81
2021/08/17 07:33:24;;;;;;;6.57;3.83;;;15.20;99.90;;;;;;5066143;28;20044;-82
2021/08/17 07:35:52;;;;;;;8.20;4.15;;;15.20;99.90;;;;;;5100977;28;20040;-80
2021/08/17 07:38:21;;;;;;;15.30;4.90;;;15.10;99.90;;;;;;5101189;28;20052;-81
2021/08/17 07:40:49;;;;;;;10.98;3.95;;;15.10;99.90;;;;;;5095817;28;20048;-81
2021/08/17 07:43:22;;;;;;;11.00;4.20;;;15.20;99.90;;;;;;5086485;28;20219;-81
2021/08/17 07:45:50;;;;;;;10.65;4.00;;;15.20;99.90;;;;;;5076458;28;20059;-81
2021/08/17 07:48:38;;;;;;;9.50;4.25;;;15.30;99.90;;;;;;5082622;28;20221;-82
2021/08/17 07:51:06;;;;;;;12.32;4.93;;;15.30;99.90;;;;;;5094759;28;20044;-81
2021/08/17 07:53:34;;;;;;;7.25;3.92;;;15.30;99.90;;;;;;5104810;28;20042;-82
2021/08/17 07:56:05;;;;;;;8.02;4.25;;;15.40;99.90;;;;;;5104859;28;20056;-82
2021/08/17 07:58:33;;;;;;;8.85;3.63;;;15.50;99.90;;;;;;5101648;28;20063;-80
2021/08/17 08:01:01;;;;;;;9.75;3.50;;;15.60;99.90;;;;;;5089626;28;20040;-82
2021/08/17 08:03:29;;;;;;;7.70;3.58;;;15.70;99.90;;;;;;5102885;28;20078;-81
2021/08/17 08:05:58;;;;;;;6.68;3.33;;;15.70;99.90;;;;;;5064473;28;20063;-83
2021/08/17 08:08:26;;;;;;;8.23;3.85;;;15.70;99.90;;;;;;5099784;28;20070;-81
2021/08/17 08:10:55;;;;;;;10.13;4.35;;;15.70;99.90;;;;;;5088752;28;20059;-81
2021/08/17 08:13:23;;;;;;;9.48;3.80;;;15.70;99.90;;;;;;5069452;28;20048;-81
2021/08/17 08:15:51;;;;;;;9.75;3.95;;;15.70;99.90;;;;;;5095810;28;20058;-82
2021/08/17 08:18:19;;;;;;;9.68;4.07;;;15.80;99.90;;;;;;5082639;28;20724;-81
2021/08/17 08:20:49;;;;;;;10.52;4.18;;;15.70;99.90;;;;;;5093914;28;20475;-81
2021/08/17 08:23:17;;;;;;;11.07;4.18;;;15.80;99.90;;;;;;5102833;28;20046;-81
2021/08/17 08:25:46;;;;;;;8.30;4.20;;;15.50;99.90;;;;;;5084288;28;20044;-82
2021/08/17 08:28:14;;;;;;;10.13;3.90;;;15.70;99.90;;;;;;5100814;28;20048;-81
2021/08/17 08:30:42;;;;;;;11.55;4.43;;;15.70;99.90;;;;;;5090316;28;20075;-82
2021/08/17 08:33:10;;;;;;;8.95;3.67;;;15.70;99.90;;;;;;5100356;28;20050;-81
2021/08/17 08:35:39;;;;;;;7.82;3.63;;;15.70;99.90;;;;;;5089462;28;20074;-81
2021/08/17 08:38:10;;;;;;;15.45;4.68;;;15.70;99.90;;;;;;5100286;28;20510;-80
2021/08/17 08:40:45;;;;;;;8.15;3.58;;;15.70;99.90;;;;;;5092086;28;20082;-81
2021/08/17 08:43:18;;;;;;;12.95;4.82;;;15.70;99.90;;;;;;5079617;28;20045;-81
2021/08/17 08:45:48;;;;;;;10.88;4.80;;;15.80;99.90;;;;;;5090222;28;20051;-81
2021/08/17 08:48:19;;;;;;;10.98;3.72;;;15.80;99.90;;;;;;5102805;28;20784;-81
2021/08/17 08:50:49;;;;;;;14.90;3.75;;;15.80;99.90;;;;;;5088831;28;20040;-81
2021/08/17 08:53:21;;;;;;;7.50;4.43;;;15.80;99.90;;;;;;5102562;28;20044;-81
2021/08/17 08:55:48;;;;;;;11.02;4.38;;;15.80;99.90;;;;;;5079838;28;20053;-81
2021/08/17 08:58:17;;;;;;;10.63;4.10;;;15.90;99.90;;;;;;5088335;28;20059;-81
2021/08/17 09:00:45;;;;;;;11.48;5.68;;;15.90;99.90;;;;;;5100740;28;20063;-81
2021/08/17 09:03:17;;;;;;;9.93;4.93;;;16.00;99.90;;;;;;5102123;28;20060;-82
2021/08/17 09:05:52;;;;;;;8.38;4.25;;;15.60;99.90;;;;;;5084931;28;20076;-81
2021/08/17 09:08:28;;;;;;;9.18;4.15;;;16.00;99.90;;;;;;5098949;28;20048;-81
2021/08/17 09:11:21;;;;;;;16.02;4.63;;;16.10;99.90;;;;;;5086895;28;20044;-81
2021/08/17 09:13:52;;;;;;;11.75;3.95;;;16.10;99.90;;;;;;5086057;28;20073;-80
2021/08/17 09:16:32;;;;;;;9.88;4.57;;;16.00;99.90;;;;;;5089986;28;20060;-81
2021/08/17 09:19:01;;;;;;;6.55;4.47;;;16.00;99.90;;;;;;5089876;28;20050;-80
2021/08/17 09:21:40;;;;;;;12.32;5.72;;;16.00;99.90;;;;;;5068580;28;20049;-80
2021/08/17 09:24:28;;;;;;;17.88;4.47;;;16.00;99.90;;;;;;5076498;28;20056;-81
2021/08/17 09:27:18;;;;;;;11.77;5.07;;;16.00;99.90;;;;;;5081505;28;20053;-81
2021/08/17 09:29:53;;;;;;;12.80;4.85;;;16.10;99.90;;;;;;5106627;28;20044;-80
2021/08/17 09:32:25;;;;;;;8.50;3.60;;;16.10;99.90;;;;;;5065185;28;20049;-81
2021/08/17 09:34:57;;;;;;;9.32;4.07;;;16.20;99.90;;;;;;5082514;28;20047;-81
2021/08/17 09:37:29;;;;;;;10.60;5.32;;;16.20;99.90;;;;;;5104966;28;20047;-81
2021/08/17 09:40:00;;;;;;;15.25;4.25;;;16.20;99.90;;;;;;5105924;28;20036;-81
2021/08/17 09:42:32;;;;;;;12.50;5.18;;;16.20;99.90;;;;;;5107266;28;20036;-79
2021/08/17 09:45:18;;;;;;;7.72;3.88;;;16.30;99.90;;;;;;5106219;28;20611;-80
2021/08/17 09:47:55;;;;;;;17.98;4.53;;;16.40;99.90;;;;;;5096976;28;20048;-80
2021/08/17 09:50:27;;;;;;;11.88;4.25;;;16.50;99.90;;;;;;5092351;28;20040;-81
2021/08/17 09:53:10;;;;;;;10.90;4.35;;;16.60;99.90;;;;;;5107134;28;20047;-82
2021/08/17 09:55:52;;;;;;;17.48;4.47;;;16.70;99.90;;;;;;5107129;28;20063;-81
2021/08/17 09:58:25;;;;;;;9.45;3.95;;;16.90;99.90;;;;;;5107599;28;20047;-81
2021/08/17 10:01:03;;;;;;;10.43;5.05;;;16.90;99.90;;;;;;5088527;28;20046;-80
2021/08/17 10:03:33;;;;;;;11.38;4.32;;;17.10;99.90;;;;;;5105930;28;20058;-81
2021/08/17 10:06:01;;;;;;;8.50;3.88;;;17.20;99.90;;;;;;5082538;28;20055;-82
2021/08/17 10:08:31;;;;;;;13.68;4.55;;;17.20;99.90;;;;;;5104175;28;20051;-80
2021/08/17 10:11:01;;;;;;;9.82;4.25;;;17.30;99.90;;;;;;5070255;28;20055;-82
2021/08/17 10:13:34;;;;;;;7.90;3.78;;;17.30;99.90;;;;;;5093552;28;20056;-82
2021/08/17 10:16:04;;;;;;;13.18;3.33;;;17.30;99.90;;;;;;5105341;28;20058;-81
2021/08/17 10:18:36;;;;;;;8.23;3.58;;;17.40;99.90;;;;;;5092092;28;20048;-80
2021/08/17 10:21:06;;;;;;;6.72;3.72;;;18.20;99.90;;;;;;5099638;28;20060;-81
2021/08/17 10:23:40;;;;;;;7.30;3.30;;;17.50;99.90;;;;;;5079304;28;20059;-81
2021/08/17 10:26:08;;;;;;;6.95;3.55;;;17.50;99.90;;;;;;5106178;28;20051;-81
2021/08/17 10:28:39;;;;;;;8.65;3.63;;;17.50;99.90;;;;;;5091985;28;20067;-80
2021/08/17 10:31:12;;;;;;;7.60;3.17;;;17.60;99.90;;;;;;5105340;28;20054;-80
2021/08/17 10:33:52;;;;;;;9.65;3.17;;;17.60;99.90;;;;;;5098838;28;20052;-82
2021/08/17 10:36:33;;;;;;;8.32;3.35;;;17.70;99.90;;;;;;5095641;28;20393;-81
2021/08/17 10:39:21;;;;;;;10.25;2.85;;;17.70;99.90;;;;;;5076793;28;20060;-80
2021/08/17 10:41:52;;;;;;;9.27;3.50;;;17.70;99.90;;;;;;5057294;28;20060;-80
2021/08/17 10:44:30;;;;;;;14.60;3.30;;;17.80;99.90;;;;;;5069300;28;20048;-81
2021/08/17 10:47:10;;;;;;;7.97;2.67;;;18.00;99.90;;;;;;5084782;28;20303;-81
2021/08/17 10:49:41;;;;;;;4.93;2.58;;;18.20;99.90;;;;;;5092939;28;20044;-80
2021/08/17 10:52:25;;;;;;;7.97;3.22;;;18.30;99.90;;;;;;5102727;28;20048;-83
2021/08/17 10:55:23;;;;;;;10.90;3.60;;;18.30;99.90;;;;;;5103377;28;20048;-81
2021/08/17 10:58:03;;;;;;;8.30;3.20;;;18.30;99.90;;;;;;5047166;28;20055;-81
2021/08/17 11:00:46;;;;;;;7.57;3.53;;;18.20;99.90;;;;;;5079792;28;20059;-81
2021/08/17 11:03:47;;;;;;;11.43;3.28;;;18.20;99.90;;;;;;5103474;28;20062;-82
2021/08/17 11:06:39;;;;;;;7.60;3.05;;;17.90;99.90;;;;;;5072367;28;20048;-82
2021/08/17 11:09:44;;;;;;;7.68;2.88;;;17.80;99.90;;;;;;5101075;28;20055;-81
2021/08/17 11:12:13;;;;;;;9.00;3.30;;;17.70;99.90;;;;;;5095188;28;20056;-82
2021/08/17 11:14:44;;;;;;;9.23;3.05;;;17.60;99.90;;;;;;5087098;28;20048;-81
2021/08/17 11:17:18;;;;;;;7.93;2.60;;;17.60;99.90;;;;;;5104406;28;20048;-81
2021/08/17 11:19:49;;;;;;;6.90;3.05;;;17.60;99.90;;;;;;5096586;28;20385;-81
2021/08/17 11:22:35;;;;;;;7.57;3.05;;;17.50;99.90;;;;;;5094611;28;20337;-82
2021/08/17 11:25:06;;;;;;;4.97;2.67;;;17.50;99.90;;;;;;5104078;28;20051;-81
2021/08/17 11:27:39;;;;;;;8.18;2.90;;;17.40;99.90;;;;;;5077124;28;20067;-80
2021/08/17 11:30:16;;;;;;;5.47;2.88;;;17.40;99.90;;;;;;5069149;28;20054;-83
2021/08/17 11:32:56;;;;;;;10.73;2.92;;;17.40;99.90;;;;;;5096705;28;20388;-80
2021/08/17 11:35:29;;;;;;;8.55;2.97;;;16.40;99.90;;;;;;5084437;28;20063;-81
2021/08/17 11:37:58;;;;;;;6.72;3.33;;;17.40;99.90;;;;;;5081514;28;20059;-82
2021/08/17 11:40:26;;;;;;;9.48;3.70;;;17.40;99.90;;;;;;5088043;28;20040;-82
2021/08/17 11:42:56;;;;;;;9.23;3.30;;;17.50;99.90;;;;;;5086087;28;20052;-82
2021/08/17 11:45:31;;;;;;;9.68;3.22;;;17.50;99.90;;;;;;5072121;28;20036;-81
2021/08/17 11:48:00;;;;;;;13.25;4.68;;;17.50;99.90;;;;;;5104968;28;20058;-82
2021/08/17 11:50:29;;;;;;;12.57;4.38;;;17.50;99.90;;;;;;5086670;28;20040;-81
2021/08/17 11:52:59;;;;;;;4.45;3.17;;;17.50;99.90;;;;;;5094455;28;20059;-82
2021/08/17 11:55:32;;;;;;;15.27;4.30;;;17.50;99.90;;;;;;5090576;28;20051;-82
2021/08/17 11:58:05;;;;;;;11.02;4.03;;;17.40;99.90;;;;;;5103949;28;20044;-83
2021/08/17 12:00:34;;;;;;;8.57;3.75;;;17.40;99.90;;;;;;5055963;28;20053;-82
2021/08/17 12:03:06;;;;;;;6.57;3.35;;;17.40;99.90;;;;;;5073651;28;20045;-81
2021/08/17 12:05:37;;;;;;;12.25;3.47;;;17.50;99.90;;;;;;5083020;28;20048;-80
2021/08/17 12:08:10;;;;;;;6.30;3.45;;;17.50;99.90;;;;;;5098710;28;20375;-81
2021/08/17 12:10:41;;;;;;;9.23;3.50;;;17.60;99.90;;;;;;5070550;28;20056;-82
2021/08/17 12:13:12;;;;;;;7.95;3.15;;;17.70;99.90;;;;;;5088093;28;20044;-80
2021/08/17 12:15:46;;;;;;;8.27;3.40;;;17.70;99.90;;;;;;5092693;28;20044;-82
2021/08/17 12:18:16;;;;;;;8.20;3.75;;;17.80;99.90;;;;;;5098970;28;20049;-83
2021/08/17 12:21:03;;;;;;;8.85;3.70;;;17.80;99.90;;;;;;5094571;28;20056;-83
2021/08/17 12:23:41;;;;;;;4.43;3.20;;;17.70;99.90;;;;;;5085659;28;20063;-82
2021/08/17 12:26:12;;;;;;;8.82;3.17;;;17.70;99.90;;;;;;5091032;28;20040;-81
2021/08/17 12:28:49;;;;;;;9.02;3.58;;;17.80;99.90;;;;;;5050417;28;20055;-82
2021/08/17 12:31:36;;;;;;;10.30;3.38;;;17.70;99.90;;;;;;5097739;28;20047;-82
2021/08/17 12:34:10;;;;;;;4.78;2.88;;;17.80;99.90;;;;;;5080998;28;20050;-81
2021/08/17 12:36:45;;;;;;;6.40;3.20;;;17.80;99.90;;;;;;5100031;28;20051;-82
2021/08/17 12:39:30;;;;;;;6.47;3.15;;;17.80;99.90;;;;;;5097399;28;20071;-82
2021/08/17 12:42:06;;;;;;;7.50;2.95;;;17.80;99.90;;;;;;5098838;28;20048;-82
2021/08/17 12:44:36;;;;;;;3.50;2.00;;;17.80;99.90;;;;;;5094609;28;20048;-80
2021/08/17 12:47:10;;;;;;;4.13;2.08;;;17.80;99.90;;;;;;5103199;28;20051;-81
2021/08/17 12:49:44;;;;;;;4.57;2.50;;;17.80;99.90;;;;;;5102428;28;20048;-82
2021/08/17 12:52:19;;;;;;;7.85;2.42;;;17.80;99.90;;;;;;5105050;28;20044;-82
2021/08/17 12:54:51;;;;;;;8.45;2.20;;;17.80;99.90;;;;;;5093777;28;20055;-82
2021/08/17 12:57:23;;;;;;;6.80;1.80;;;17.80;99.90;;;;;;5092029;28;20063;-82
2021/08/17 12:59:54;;;;;;;7.65;2.10;;;17.90;99.90;;;;;;5098358;28;20066;-81